createdAt,value
2022-12-25T08:02:29.091Z,100955.75
2022-12-25T08:05:33.030Z,100959.56
2022-12-25T08:08:37.382Z,100965.34
2022-12-25T08:11:45.974Z,100962.06
2022-12-25T08:14:49.257Z,100968.97
2022-12-25T08:17:52.274Z,100966.00
2022-12-25T08:20:55.219Z,100968.72
2022-12-25T08:23:58.395Z,100973.06
2022-12-25T08:27:01.262Z,100970.41
2022-12-25T08:30:08.144Z,100966.88
2022-12-25T08:33:30.872Z,100969.66
2022-12-25T08:36:34.089Z,100975.75
2022-12-25T08:39:36.977Z,100977.25
2022-12-25T08:42:40.089Z,100974.94
2022-12-25T08:45:42.909Z,100982.09
2022-12-25T08:48:48.650Z,100987.56
2022-12-25T08:51:51.397Z,100997.44
2022-12-25T08:54:54.904Z,100989.72
2022-12-25T08:57:57.794Z,100992.22
2022-12-25T09:01:01.472Z,100993.75
2022-12-25T09:04:04.440Z,100991.81
2022-12-25T09:07:07.561Z,100985.19
2022-12-25T09:10:10.826Z,100983.00
2022-12-25T09:13:14.108Z,100982.16
2022-12-25T09:16:20.661Z,100983.31
2022-12-25T09:19:23.842Z,100985.53
2022-12-25T09:22:27.359Z,100991.66
2022-12-25T09:25:30.536Z,100988.28
2022-12-25T09:28:33.856Z,100979.69
2022-12-25T09:31:37.051Z,100973.50
2022-12-25T09:34:40.572Z,100984.19
2022-12-25T09:37:44.046Z,100985.00
2022-12-25T09:40:47.093Z,100981.47
2022-12-25T09:43:56.329Z,100983.41
2022-12-25T09:47:04.223Z,100991.56
2022-12-25T09:50:23.879Z,100982.66
2022-12-25T09:53:32.707Z,100990.03
2022-12-25T09:56:35.969Z,100992.75
2022-12-25T09:59:42.198Z,100992.81
2022-12-25T10:02:54.543Z,100992.87
2022-12-25T10:06:13.459Z,100993.84
2022-12-25T10:09:25.385Z,100996.66
2022-12-25T10:12:50.070Z,100998.94
2022-12-25T10:16:21.523Z,100995.38
2022-12-25T10:19:28.005Z,100985.78
2022-12-25T10:22:37.555Z,100981.12
2022-12-25T10:25:41.926Z,100988.69
2022-12-25T10:28:47.659Z,100977.75
2022-12-25T10:31:55.974Z,100992.44
2022-12-25T10:34:59.379Z,100990.06
2022-12-25T10:38:10.107Z,100984.38
2022-12-25T10:41:21.752Z,100982.84
2022-12-25T10:44:25.429Z,100983.25
2022-12-25T10:47:34.264Z,100986.00
2022-12-25T10:50:43.335Z,100985.19
2022-12-25T10:53:46.136Z,100977.88
2022-12-25T10:57:01.302Z,100981.94
2022-12-25T11:00:05.892Z,100977.22
2022-12-25T11:03:22.835Z,100975.78
2022-12-25T11:06:32.151Z,100982.37
2022-12-25T11:09:35.232Z,100975.13
2022-12-25T11:12:43.288Z,100968.22
2022-12-25T11:15:49.337Z,100968.47
2022-12-25T11:18:54.601Z,100961.81
2022-12-25T11:22:00.050Z,100965.81
2022-12-25T11:25:21.485Z,100953.53
2022-12-25T11:28:26.311Z,100961.81
2022-12-25T11:31:41.459Z,100953.81
2022-12-25T11:34:46.994Z,100948.19
2022-12-25T11:37:52.065Z,100953.53
2022-12-25T11:41:00.680Z,100939.13
2022-12-25T11:44:06.448Z,100949.78
2022-12-25T11:47:33.281Z,100934.31
2022-12-25T11:50:43.516Z,100939.94
2022-12-25T11:53:55.874Z,100941.25
2022-12-25T11:57:02.750Z,100932.72
2022-12-25T12:00:10.246Z,100928.44
2022-12-25T12:03:41.504Z,100935.13
2022-12-25T12:06:58.925Z,100937.50
2022-12-25T12:10:17.856Z,100929.50
2022-12-25T12:13:20.572Z,100933.78
2022-12-25T12:16:24.083Z,100924.72
2022-12-25T12:19:30.655Z,100922.84
2022-12-25T12:22:35.813Z,100918.81
2022-12-25T12:25:41.578Z,100920.44
2022-12-25T12:28:47.132Z,100931.09
2022-12-25T12:31:53.253Z,100920.72
2022-12-25T12:34:56.999Z,100926.31
2022-12-25T12:38:12.523Z,100924.44
2022-12-25T12:41:16.473Z,100927.91
2022-12-25T12:44:23.906Z,100923.91
2022-12-25T12:47:41.789Z,100920.72
2022-12-25T12:50:44.792Z,100917.50
2022-12-25T12:53:47.955Z,100918.84
2022-12-25T12:57:02.687Z,100912.41
2022-12-25T13:00:18.540Z,100914.03
2022-12-25T13:03:21.196Z,100921.22
2022-12-25T13:06:29.866Z,100927.09
2022-12-25T13:10:00.331Z,100921.75
2022-12-25T13:13:12.444Z,100921.50
2022-12-25T13:16:32.030Z,100918.84
2022-12-25T13:19:37.127Z,100930.84
2022-12-25T13:22:39.987Z,100927.66
2022-12-25T13:25:43.245Z,100926.84
2022-12-25T13:28:47.670Z,100925.25
2022-12-25T13:31:51.395Z,100930.06
2022-12-25T13:34:54.799Z,100930.84
2022-12-25T13:37:58.428Z,100937.19
2022-12-25T13:41:20.488Z,100929.41
2022-12-25T13:44:26.565Z,100932.03
2022-12-25T13:47:43.165Z,100932.25
2022-12-25T13:50:57.230Z,100923.91
2022-12-25T13:54:09.482Z,100924.44
2022-12-25T13:57:15.480Z,100927.06
2022-12-25T14:00:22.115Z,100927.03
2022-12-25T14:03:46.604Z,100918.97
2022-12-25T14:06:50.896Z,100928.75
2022-12-25T14:09:58.572Z,100931.13
2022-12-25T14:13:05.613Z,100935.41
2022-12-25T14:16:10.282Z,100940.12
2022-12-25T14:19:42.630Z,100939.72
2022-12-25T14:22:53.771Z,100934.47
2022-12-25T14:25:56.587Z,100930.06
2022-12-25T14:29:05.924Z,100927.72
2022-12-25T14:32:16.849Z,100930.00
2022-12-25T14:35:23.615Z,100934.84
2022-12-25T14:38:36.655Z,100932.56
2022-12-25T14:41:42.004Z,100935.75
2022-12-25T14:45:00.108Z,100939.09
2022-12-25T14:48:25.471Z,100940.81
2022-12-25T14:51:30.061Z,100946.38
2022-12-25T14:54:33.656Z,100930.44
2022-12-25T14:57:41.290Z,100939.72
2022-12-25T15:00:44.805Z,100944.50
2022-12-25T15:44:35.716Z,100929.69
2022-12-25T15:47:39.020Z,100922.53
2022-12-25T15:50:43.674Z,100924.00
2022-12-25T15:53:46.741Z,100917.69
2022-12-25T15:56:53.741Z,100919.75
2022-12-25T15:59:57.924Z,100928.66
2022-12-25T16:03:23.284Z,100926.47
2022-12-25T16:06:50.419Z,100933.00
2022-12-25T16:09:57.867Z,100924.38
2022-12-25T16:13:02.843Z,100928.44
2022-12-25T16:16:22.866Z,100923.72
2022-12-25T16:19:30.648Z,100928.06
2022-12-25T16:22:39.980Z,100930.19
2022-12-25T16:25:43.227Z,100920.84
2022-12-25T16:28:50.924Z,100924.09
2022-12-25T16:31:53.755Z,100926.19
2022-12-25T16:34:57.001Z,100915.78
2022-12-25T16:38:23.939Z,100914.31
2022-12-25T16:41:31.504Z,100906.66
2022-12-25T16:44:38.623Z,100906.91
2022-12-25T16:47:44.665Z,100909.00
2022-12-25T16:50:47.712Z,100909.50
2022-12-25T16:53:51.261Z,100900.88
2022-12-25T16:56:54.133Z,100900.84
2022-12-25T16:59:57.360Z,100896.12
2022-12-25T17:03:01.439Z,100887.28
2022-12-25T17:06:23.507Z,100880.28
2022-12-25T17:09:31.617Z,100877.84
2022-12-25T17:12:38.706Z,100875.56
2022-12-25T17:15:46.662Z,100877.91
2022-12-25T17:19:04.252Z,100881.91
2022-12-25T17:22:07.550Z,100885.72
2022-12-25T17:25:10.737Z,100885.00
2022-12-25T17:28:19.088Z,100882.81
2022-12-25T17:31:35.313Z,100881.22
2022-12-25T17:34:38.259Z,100876.63
2022-12-25T17:38:00.271Z,100871.09
2022-12-25T17:41:05.659Z,100864.81
2022-12-25T17:44:09.692Z,100855.91
2022-12-25T17:47:14.172Z,100858.16
2022-12-25T17:50:17.579Z,100870.44
2022-12-25T17:53:20.442Z,100868.03
2022-12-25T17:56:24.688Z,100855.44
2022-12-25T17:59:36.878Z,100853.91
2022-12-25T18:03:05.803Z,100837.84
2022-12-25T18:06:42.671Z,100847.37
2022-12-25T18:09:45.524Z,100843.13
2022-12-25T18:12:53.239Z,100842.06
2022-12-25T18:15:57.066Z,100839.41
2022-12-25T18:19:00.471Z,100834.34
2022-12-25T18:22:03.618Z,100824.91
2022-12-25T18:25:09.854Z,100815.06
2022-12-25T18:28:13.865Z,100816.56
2022-12-25T18:31:21.875Z,100820.28
2022-12-25T18:34:24.657Z,100836.81
2022-12-25T18:37:58.184Z,100834.72
2022-12-25T18:41:07.888Z,100831.25
2022-12-25T18:44:11.004Z,100820.84
2022-12-25T18:47:14.294Z,100824.03
2022-12-25T18:50:17.438Z,100834.28
2022-12-25T18:53:20.228Z,100831.31
2022-12-25T18:56:25.241Z,100831.78
2022-12-25T18:59:29.714Z,100835.56
2022-12-25T19:02:34.570Z,100844.41
2022-12-25T19:05:41.164Z,100848.00
2022-12-25T19:08:44.756Z,100857.31
2022-12-25T19:11:49.081Z,100839.16
2022-12-25T19:14:53.011Z,100837.19
2022-12-25T19:17:55.792Z,100848.50
2022-12-25T19:21:07.808Z,100845.88
2022-12-25T19:24:10.551Z,100852.62
2022-12-25T19:27:13.629Z,100851.75
2022-12-25T19:30:18.260Z,100861.09
2022-12-25T19:33:21.970Z,100867.72
2022-12-25T19:36:24.736Z,100873.94
2022-12-25T19:39:28.289Z,100861.28
2022-12-25T19:42:31.293Z,100866.69
2022-12-25T19:45:34.670Z,100862.44
2022-12-25T19:48:37.515Z,100855.81
2022-12-25T19:51:45.243Z,100843.75
2022-12-25T19:54:51.414Z,100840.28
2022-12-25T19:57:55.422Z,100829.47
2022-12-25T20:01:00.622Z,100812.87
2022-12-25T20:04:07.831Z,100809.09
2022-12-25T20:07:10.608Z,100788.44
2022-12-25T20:10:13.805Z,100789.28
2022-12-25T20:13:16.718Z,100782.31
2022-12-25T20:16:25.586Z,100783.41
2022-12-25T20:19:33.239Z,100798.69
2022-12-25T20:22:41.027Z,100806.66
2022-12-25T20:25:43.875Z,100814.69
2022-12-25T20:28:48.984Z,100802.75
2022-12-25T20:31:52.113Z,100806.97
2022-12-25T20:34:55.223Z,100798.88
2022-12-25T20:37:57.929Z,100803.88
2022-12-25T20:41:29.197Z,100797.34
2022-12-25T20:44:32.681Z,100775.00
2022-12-25T20:47:36.217Z,100777.72
2022-12-25T20:50:42.783Z,100770.75
2022-12-25T20:53:51.982Z,100775.41
2022-12-25T20:56:58.747Z,100781.94
2022-12-25T21:00:24.753Z,100781.31
2022-12-25T21:03:28.147Z,100795.75
2022-12-25T21:06:31.887Z,100789.69
2022-12-25T21:09:34.815Z,100784.06
2022-12-25T21:12:37.943Z,100776.09
2022-12-25T21:15:44.816Z,100772.19
2022-12-25T21:18:49.293Z,100773.09
2022-12-25T21:21:52.055Z,100765.09
2022-12-25T21:24:55.515Z,100769.41
2022-12-25T21:28:00.015Z,100777.66
2022-12-25T21:31:05.288Z,100781.59
2022-12-25T21:34:31.446Z,100767.53
2022-12-25T21:37:36.758Z,100761.47
2022-12-25T21:40:41.705Z,100751.84
2022-12-25T21:43:44.769Z,100751.03
2022-12-25T21:46:48.037Z,100745.91
2022-12-25T21:50:10.195Z,100751.78
2022-12-25T21:53:17.281Z,100747.75
2022-12-25T21:56:44.969Z,100750.91
2022-12-25T21:59:48.425Z,100761.66
2022-12-25T22:02:51.733Z,100769.00
2022-12-25T22:06:21.130Z,100763.34
2022-12-25T22:09:24.684Z,100755.56
2022-12-25T22:12:46.443Z,100755.37
2022-12-25T22:16:07.983Z,100743.88
2022-12-25T22:19:29.746Z,100750.81
2022-12-25T22:22:32.893Z,100741.53
2022-12-25T22:25:36.245Z,100736.00
2022-12-25T22:28:39.214Z,100745.13
2022-12-25T22:31:46.580Z,100738.13
2022-12-25T22:34:49.817Z,100748.66
2022-12-25T22:37:54.199Z,100746.25
2022-12-25T22:40:57.086Z,100748.44
2022-12-25T22:44:18.115Z,100746.56
2022-12-25T22:47:21.378Z,100749.78
2022-12-25T22:50:24.613Z,100750.16
2022-12-25T22:53:28.002Z,100743.44
2022-12-25T22:56:31.168Z,100743.06
2022-12-25T22:59:34.987Z,100733.69
2022-12-25T23:02:46.122Z,100747.19
2022-12-25T23:06:09.351Z,100735.37
2022-12-25T23:09:20.558Z,100729.25
2022-12-25T23:12:47.536Z,100730.69
2022-12-25T23:15:51.170Z,100733.81
2022-12-25T23:19:15.746Z,100732.41
2022-12-25T23:22:37.187Z,100731.81
2022-12-25T23:25:59.566Z,100714.69
2022-12-25T23:29:37.491Z,100714.87
2022-12-25T23:32:40.833Z,100711.63
2022-12-25T23:35:44.036Z,100710.81
2022-12-25T23:38:46.972Z,100709.81
2022-12-25T23:41:50.555Z,100713.59
2022-12-25T23:44:53.434Z,100706.16
2022-12-25T23:47:56.469Z,100707.56
2022-12-25T23:51:08.587Z,100707.25
2022-12-25T23:54:17.244Z,100712.59
2022-12-25T23:57:20.436Z,100713.97
